sensor_id;sensor_type;location;lat;lon;timestamp;pressure;altitude;pressure_sealevel;temperature;humidity
68994;BME280;56054;50.968;5.816;2022-12-18T00:01:58;101945.81;;;-5.26;93.36
68994;BME280;56054;50.968;5.816;2022-12-18T00:05:05;101942.78;;;-5.24;93.69
68994;BME280;56054;50.968;5.816;2022-12-18T00:08:12;101934.97;;;-5.25;93.40
68994;BME280;56054;50.968;5.816;2022-12-18T00:11:21;101934.53;;;-5.28;93.05
68994;BME280;56054;50.968;5.816;2022-12-18T00:14:29;101939.34;;;-5.30;93.29
68994;BME280;56054;50.968;5.816;2022-12-18T00:17:51;101941.78;;;-5.48;93.31
68994;BME280;56054;50.968;5.816;2022-12-18T00:21:03;101954.13;;;-5.85;93.58
68994;BME280;56054;50.968;5.816;2022-12-18T00:24:10;101959.66;;;-5.82;94.69
68994;BME280;56054;50.968;5.816;2022-12-18T00:27:17;101952.09;;;-5.41;94.31
68994;BME280;56054;50.968;5.816;2022-12-18T00:30:24;101951.59;;;-5.33;93.92
68994;BME280;56054;50.968;5.816;2022-12-18T00:33:31;101943.03;;;-5.28;93.65
68994;BME280;56054;50.968;5.816;2022-12-18T00:36:39;101933.94;;;-5.50;93.30
68994;BME280;56054;50.968;5.816;2022-12-18T00:39:47;101936.44;;;-5.44;93.31
68994;BME280;56054;50.968;5.816;2022-12-18T00:42:54;101927.31;;;-5.55;93.54
68994;BME280;56054;50.968;5.816;2022-12-18T00:46:01;101920.25;;;-5.74;93.79
68994;BME280;56054;50.968;5.816;2022-12-18T00:49:09;101928.22;;;-5.54;93.93
68994;BME280;56054;50.968;5.816;2022-12-18T00:52:16;101930.16;;;-5.76;93.84
68994;BME280;56054;50.968;5.816;2022-12-18T00:55:23;101925.47;;;-5.62;93.81
68994;BME280;56054;50.968;5.816;2022-12-18T00:58:30;101932.13;;;-5.56;93.24
68994;BME280;56054;50.968;5.816;2022-12-18T01:01:38;101918.78;;;-5.55;93.79
68994;BME280;56054;50.968;5.816;2022-12-18T01:04:45;101926.34;;;-5.50;93.67
68994;BME280;56054;50.968;5.816;2022-12-18T01:07:55;101918.28;;;-5.47;93.66
68994;BME280;56054;50.968;5.816;2022-12-18T01:11:10;101908.63;;;-5.50;93.74
68994;BME280;56054;50.968;5.816;2022-12-18T01:14:17;101900.19;;;-5.67;95.07
68994;BME280;56054;50.968;5.816;2022-12-18T01:17:24;101905.94;;;-5.68;95.97
68994;BME280;56054;50.968;5.816;2022-12-18T01:20:31;101905.03;;;-5.69;94.54
68994;BME280;56054;50.968;5.816;2022-12-18T01:23:39;101906.84;;;-5.62;93.84
68994;BME280;56054;50.968;5.816;2022-12-18T01:26:47;101913.53;;;-5.63;93.83
68994;BME280;56054;50.968;5.816;2022-12-18T01:29:54;101905.13;;;-5.91;93.50
68994;BME280;56054;50.968;5.816;2022-12-18T01:33:01;101925.47;;;-5.62;93.95
68994;BME280;56054;50.968;5.816;2022-12-18T01:36:18;101923.75;;;-5.85;92.40
68994;BME280;56054;50.968;5.816;2022-12-18T01:39:25;101928.34;;;-5.88;92.39
68994;BME280;56054;50.968;5.816;2022-12-18T01:42:32;101928.63;;;-5.92;92.18
68994;BME280;56054;50.968;5.816;2022-12-18T01:45:39;101931.16;;;-5.92;92.16
68994;BME280;56054;50.968;5.816;2022-12-18T01:48:49;101919.63;;;-5.90;92.19
68994;BME280;56054;50.968;5.816;2022-12-18T01:51:58;101905.84;;;-5.92;92.88
68994;BME280;56054;50.968;5.816;2022-12-18T01:55:06;101912.69;;;-5.86;92.39
68994;BME280;56054;50.968;5.816;2022-12-18T01:58:15;101912.13;;;-6.13;92.23
68994;BME280;56054;50.968;5.816;2022-12-18T02:01:23;101917.84;;;-6.03;92.34
68994;BME280;56054;50.968;5.816;2022-12-18T02:04:30;101916.25;;;-5.96;92.38
68994;BME280;56054;50.968;5.816;2022-12-18T02:17:54;101905.84;;;-5.92;92.20
68994;BME280;56054;50.968;5.816;2022-12-18T02:24:49;101895.56;;;-6.11;93.47
68994;BME280;56054;50.968;5.816;2022-12-18T02:28:04;101902.31;;;-6.28;94.41
68994;BME280;56054;50.968;5.816;2022-12-18T02:31:17;101901.81;;;-6.20;94.86
68994;BME280;56054;50.968;5.816;2022-12-18T02:34:29;101888.50;;;-6.30;95.11
68994;BME280;56054;50.968;5.816;2022-12-18T02:37:39;101888.00;;;-6.22;96.33
68994;BME280;56054;50.968;5.816;2022-12-18T02:40:49;101901.59;;;-6.27;96.22
68994;BME280;56054;50.968;5.816;2022-12-18T02:43:59;101889.91;;;-6.38;95.50
68994;BME280;56054;50.968;5.816;2022-12-18T02:47:10;101889.13;;;-6.09;95.42
68994;BME280;56054;50.968;5.816;2022-12-18T02:53:40;101867.84;;;-6.33;94.96
68994;BME280;56054;50.968;5.816;2022-12-18T02:56:54;101875.38;;;-6.22;94.76
68994;BME280;56054;50.968;5.816;2022-12-18T03:00:10;101863.66;;;-6.21;94.12
68994;BME280;56054;50.968;5.816;2022-12-18T03:03:26;101867.50;;;-6.12;93.27
68994;BME280;56054;50.968;5.816;2022-12-18T03:06:40;101866.41;;;-6.26;93.09
68994;BME280;56054;50.968;5.816;2022-12-18T03:09:50;101863.19;;;-6.19;93.35
68994;BME280;56054;50.968;5.816;2022-12-18T03:13:12;101861.78;;;-6.17;92.62
68994;BME280;56054;50.968;5.816;2022-12-18T03:16:25;101862.97;;;-6.26;92.68
68994;BME280;56054;50.968;5.816;2022-12-18T03:19:34;101853.88;;;-6.76;93.84
68994;BME280;56054;50.968;5.816;2022-12-18T03:22:44;101842.41;;;-6.74;93.29
68994;BME280;56054;50.968;5.816;2022-12-18T03:25:57;101851.72;;;-6.28;93.46
68994;BME280;56054;50.968;5.816;2022-12-18T03:29:10;101842.00;;;-6.19;92.08
68994;BME280;56054;50.968;5.816;2022-12-18T03:32:25;101838.81;;;-6.18;92.01
68994;BME280;56054;50.968;5.816;2022-12-18T03:35:38;101843.78;;;-6.65;92.58
68994;BME280;56054;50.968;5.816;2022-12-18T03:38:47;101835.41;;;-6.41;92.38
68994;BME280;56054;50.968;5.816;2022-12-18T03:42:04;101843.44;;;-6.21;92.39
68994;BME280;56054;50.968;5.816;2022-12-18T03:45:27;101840.25;;;-6.37;91.64
68994;BME280;56054;50.968;5.816;2022-12-18T03:48:44;101843.06;;;-6.53;93.14
68994;BME280;56054;50.968;5.816;2022-12-18T03:52:01;101843.50;;;-6.61;93.93
68994;BME280;56054;50.968;5.816;2022-12-18T03:55:11;101848.13;;;-6.53;94.46
68994;BME280;56054;50.968;5.816;2022-12-18T03:58:23;101839.81;;;-6.52;94.81
68994;BME280;56054;50.968;5.816;2022-12-18T04:01:46;101831.06;;;-6.42;95.35
68994;BME280;56054;50.968;5.816;2022-12-18T04:04:58;101837.94;;;-6.41;95.23
68994;BME280;56054;50.968;5.816;2022-12-18T04:08:08;101826.44;;;-6.39;95.22
68994;BME280;56054;50.968;5.816;2022-12-18T04:11:20;101819.13;;;-6.43;95.31
68994;BME280;56054;50.968;5.816;2022-12-18T04:14:27;101813.38;;;-6.48;95.61
68994;BME280;56054;50.968;5.816;2022-12-18T04:17:34;101824.19;;;-6.49;95.66
68994;BME280;56054;50.968;5.816;2022-12-18T04:20:41;101829.69;;;-6.40;95.89
68994;BME280;56054;50.968;5.816;2022-12-18T04:23:49;101820.47;;;-6.40;95.91
68994;BME280;56054;50.968;5.816;2022-12-18T04:26:57;101819.56;;;-6.40;95.63
68994;BME280;56054;50.968;5.816;2022-12-18T04:30:08;101816.59;;;-6.43;96.18
68994;BME280;56054;50.968;5.816;2022-12-18T04:33:15;101814.94;;;-6.37;95.83
68994;BME280;56054;50.968;5.816;2022-12-18T04:36:22;101808.75;;;-6.39;96.15
68994;BME280;56054;50.968;5.816;2022-12-18T04:39:29;101826.88;;;-6.31;96.09
68994;BME280;56054;50.968;5.816;2022-12-18T04:42:42;101823.66;;;-6.30;96.17
68994;BME280;56054;50.968;5.816;2022-12-18T04:45:49;101837.91;;;-6.30;95.47
68994;BME280;56054;50.968;5.816;2022-12-18T04:48:56;101832.19;;;-6.35;95.81
68994;BME280;56054;50.968;5.816;2022-12-18T04:52:03;101836.81;;;-6.38;95.94
68994;BME280;56054;50.968;5.816;2022-12-18T04:55:10;101835.66;;;-6.40;96.41
68994;BME280;56054;50.968;5.816;2022-12-18T04:58:17;101845.06;;;-6.33;96.15
68994;BME280;56054;50.968;5.816;2022-12-18T05:01:24;101856.34;;;-6.31;95.98
68994;BME280;56054;50.968;5.816;2022-12-18T05:04:31;101848.50;;;-6.33;96.15
68994;BME280;56054;50.968;5.816;2022-12-18T05:07:38;101848.03;;;-6.30;96.28
68994;BME280;56054;50.968;5.816;2022-12-18T05:10:45;101841.84;;;-6.32;96.20
68994;BME280;56054;50.968;5.816;2022-12-18T05:13:52;101834.72;;;-6.35;96.20
68994;BME280;56054;50.968;5.816;2022-12-18T05:16:59;101831.28;;;-6.35;96.46
68994;BME280;56054;50.968;5.816;2022-12-18T05:20:06;101832.41;;;-6.39;96.62
68994;BME280;56054;50.968;5.816;2022-12-18T05:23:14;101819.34;;;-6.36;96.46
68994;BME280;56054;50.968;5.816;2022-12-18T05:26:21;101829.19;;;-6.32;96.30
68994;BME280;56054;50.968;5.816;2022-12-18T05:29:28;101833.38;;;-6.38;95.80
68994;BME280;56054;50.968;5.816;2022-12-18T05:32:35;101833.34;;;-6.44;96.48
68994;BME280;56054;50.968;5.816;2022-12-18T05:35:42;101839.81;;;-6.46;96.22
68994;BME280;56054;50.968;5.816;2022-12-18T05:38:49;101840.75;;;-6.46;96.39
68994;BME280;56054;50.968;5.816;2022-12-18T05:41:56;101835.22;;;-6.54;96.51
68994;BME280;56054;50.968;5.816;2022-12-18T05:45:04;101833.38;;;-6.50;96.52
68994;BME280;56054;50.968;5.816;2022-12-18T05:48:11;101833.81;;;-6.35;96.16
68994;BME280;56054;50.968;5.816;2022-12-18T05:51:20;101836.13;;;-6.42;96.39
68994;BME280;56054;50.968;5.816;2022-12-18T05:54:28;101831.09;;;-6.48;96.38
68994;BME280;56054;50.968;5.816;2022-12-18T05:57:35;101829.91;;;-6.44;95.90
68994;BME280;56054;50.968;5.816;2022-12-18T06:00:44;101832.44;;;-6.44;96.18
68994;BME280;56054;50.968;5.816;2022-12-18T06:03:52;101829.59;;;-6.18;95.93
68994;BME280;56054;50.968;5.816;2022-12-18T06:06:59;101827.25;;;-6.11;95.58
68994;BME280;56054;50.968;5.816;2022-12-18T06:10:06;101833.84;;;-6.41;95.75
68994;BME280;56054;50.968;5.816;2022-12-18T06:13:13;101826.50;;;-6.51;96.00
68994;BME280;56054;50.968;5.816;2022-12-18T06:16:20;101825.72;;;-6.27;95.72
68994;BME280;56054;50.968;5.816;2022-12-18T06:19:27;101820.38;;;-6.12;95.05
68994;BME280;56054;50.968;5.816;2022-12-18T06:22:34;101829.22;;;-6.38;95.42
68994;BME280;56054;50.968;5.816;2022-12-18T06:25:41;101834.50;;;-6.36;95.81
68994;BME280;56054;50.968;5.816;2022-12-18T06:28:48;101837.84;;;-6.13;95.64
68994;BME280;56054;50.968;5.816;2022-12-18T06:31:55;101829.13;;;-6.15;94.69
68994;BME280;56054;50.968;5.816;2022-12-18T06:35:02;101840.75;;;-6.46;95.05
68994;BME280;56054;50.968;5.816;2022-12-18T06:38:09;101850.13;;;-6.33;95.65
68994;BME280;56054;50.968;5.816;2022-12-18T06:41:19;101838.88;;;-6.41;95.42
68994;BME280;56054;50.968;5.816;2022-12-18T06:44:26;101842.31;;;-6.35;95.58
68994;BME280;56054;50.968;5.816;2022-12-18T06:47:33;101835.88;;;-6.38;95.57
68994;BME280;56054;50.968;5.816;2022-12-18T06:50:42;101830.38;;;-6.47;95.57
68994;BME280;56054;50.968;5.816;2022-12-18T06:53:49;101832.47;;;-6.50;96.41
68994;BME280;56054;50.968;5.816;2022-12-18T06:56:56;101826.50;;;-6.51;96.02
68994;BME280;56054;50.968;5.816;2022-12-18T07:00:05;101825.56;;;-6.51;95.85
68994;BME280;56054;50.968;5.816;2022-12-18T07:03:12;101829.03;;;-6.56;96.08
68994;BME280;56054;50.968;5.816;2022-12-18T07:06:21;101823.75;;;-6.52;96.26
68994;BME280;56054;50.968;5.816;2022-12-18T07:09:28;101822.13;;;-6.52;95.80
68994;BME280;56054;50.968;5.816;2022-12-18T07:12:35;101814.31;;;-6.59;96.29
68994;BME280;56054;50.968;5.816;2022-12-18T07:15:43;101810.84;;;-6.54;96.45
68994;BME280;56054;50.968;5.816;2022-12-18T07:18:50;101818.22;;;-6.50;96.41
68994;BME280;56054;50.968;5.816;2022-12-18T07:21:57;101812.91;;;-6.51;96.14
68994;BME280;56054;50.968;5.816;2022-12-18T07:25:04;101800.75;;;-6.54;96.11
68994;BME280;56054;50.968;5.816;2022-12-18T07:28:11;101802.59;;;-6.53;96.29
68994;BME280;56054;50.968;5.816;2022-12-18T07:31:20;101780.31;;;-6.55;96.19
68994;BME280;56054;50.968;5.816;2022-12-18T07:34:27;101772.69;;;-6.50;95.81
68994;BME280;56054;50.968;5.816;2022-12-18T07:37:34;101775.91;;;-6.45;95.93
68994;BME280;56054;50.968;5.816;2022-12-18T07:40:43;101774.75;;;-6.47;95.47
68994;BME280;56054;50.968;5.816;2022-12-18T07:43:51;101763.03;;;-6.47;95.64
68994;BME280;56054;50.968;5.816;2022-12-18T07:46:58;101757.50;;;-6.44;95.92
68994;BME280;56054;50.968;5.816;2022-12-18T07:50:05;101749.63;;;-6.34;95.78
68994;BME280;56054;50.968;5.816;2022-12-18T07:53:12;101752.63;;;-6.31;95.42
68994;BME280;56054;50.968;5.816;2022-12-18T07:56:20;101739.91;;;-6.20;95.03
68994;BME280;56054;50.968;5.816;2022-12-18T07:59:27;101744.06;;;-6.20;95.21
68994;BME280;56054;50.968;5.816;2022-12-18T08:02:34;101747.63;;;-6.01;94.79
68994;BME280;56054;50.968;5.816;2022-12-18T08:05:41;101742.91;;;-5.87;94.88
68994;BME280;56054;50.968;5.816;2022-12-18T08:08:53;101736.06;;;-5.94;94.67
68994;BME280;56054;50.968;5.816;2022-12-18T08:12:01;101737.22;;;-5.97;94.71
68994;BME280;56054;50.968;5.816;2022-12-18T08:15:08;101737.22;;;-5.97;94.59
68994;BME280;56054;50.968;5.816;2022-12-18T08:18:15;101741.63;;;-5.96;95.16
68994;BME280;56054;50.968;5.816;2022-12-18T08:21:27;101737.38;;;-5.85;94.66
68994;BME280;56054;50.968;5.816;2022-12-18T08:24:35;101729.78;;;-5.85;94.75
68994;BME280;56054;50.968;5.816;2022-12-18T08:27:42;101728.56;;;-5.75;94.79
68994;BME280;56054;50.968;5.816;2022-12-18T08:30:51;101734.06;;;-5.72;94.50
68994;BME280;56054;50.968;5.816;2022-12-18T08:33:58;101741.38;;;-5.68;94.09
68994;BME280;56054;50.968;5.816;2022-12-18T08:37:05;101737.66;;;-5.65;94.12
68994;BME280;56054;50.968;5.816;2022-12-18T08:40:12;101739.50;;;-5.64;94.35
68994;BME280;56054;50.968;5.816;2022-12-18T08:43:26;101752.78;;;-5.53;94.26
68994;BME280;56054;50.968;5.816;2022-12-18T08:46:38;101747.97;;;-5.57;94.44
68994;BME280;56054;50.968;5.816;2022-12-18T08:49:46;101753.91;;;-5.51;94.32
68994;BME280;56054;50.968;5.816;2022-12-18T08:52:53;101749.06;;;-5.50;93.95
68994;BME280;56054;50.968;5.816;2022-12-18T08:56:00;101724.66;;;-5.49;94.25
68994;BME280;56054;50.968;5.816;2022-12-18T08:59:08;101714.00;;;-5.41;94.13
68994;BME280;56054;50.968;5.816;2022-12-18T09:02:15;101711.84;;;-5.32;94.17
68994;BME280;56054;50.968;5.816;2022-12-18T09:05:22;101705.75;;;-5.22;93.65
68994;BME280;56054;50.968;5.816;2022-12-18T09:08:29;101713.22;;;-5.10;93.33
68994;BME280;56054;50.968;5.816;2022-12-18T09:11:36;101721.22;;;-5.02;93.57
68994;BME280;56054;50.968;5.816;2022-12-18T09:14:43;101717.88;;;-4.95;93.53
68994;BME280;56054;50.968;5.816;2022-12-18T09:17:50;101714.09;;;-4.86;93.69
68994;BME280;56054;50.968;5.816;2022-12-18T09:20:57;101722.09;;;-4.77;93.15
68994;BME280;56054;50.968;5.816;2022-12-18T09:24:04;101720.03;;;-4.80;93.53
68994;BME280;56054;50.968;5.816;2022-12-18T09:27:11;101711.03;;;-4.78;93.53
68994;BME280;56054;50.968;5.816;2022-12-18T09:30:18;101705.88;;;-4.72;93.61
68994;BME280;56054;50.968;5.816;2022-12-18T09:33:25;101712.00;;;-4.64;93.16
68994;BME280;56054;50.968;5.816;2022-12-18T09:36:32;101702.72;;;-4.58;93.04
68994;BME280;56054;50.968;5.816;2022-12-18T09:39:39;101707.22;;;-4.50;93.02
68994;BME280;56054;50.968;5.816;2022-12-18T09:42:52;101699.03;;;-4.42;93.02
68994;BME280;56054;50.968;5.816;2022-12-18T09:46:04;101694.47;;;-4.44;92.88
68994;BME280;56054;50.968;5.816;2022-12-18T09:49:15;101698.91;;;-4.31;93.07
68994;BME280;56054;50.968;5.816;2022-12-18T09:55:45;101695.00;;;-4.16;93.08
68994;BME280;56054;50.968;5.816;2022-12-18T09:58:58;101687.00;;;-4.06;93.42
68994;BME280;56054;50.968;5.816;2022-12-18T10:02:14;101684.59;;;-3.99;92.49
68994;BME280;56054;50.968;5.816;2022-12-18T10:09:07;101679.34;;;-3.88;92.70
68994;BME280;56054;50.968;5.816;2022-12-18T10:12:29;101679.25;;;-3.82;92.77
68994;BME280;56054;50.968;5.816;2022-12-18T10:25:59;101677.84;;;-3.54;92.58
68994;BME280;56054;50.968;5.816;2022-12-18T10:29:12;101680.31;;;-3.49;91.58
68994;BME280;56054;50.968;5.816;2022-12-18T10:32:22;101673.19;;;-3.38;91.66
68994;BME280;56054;50.968;5.816;2022-12-18T10:35:39;101668.41;;;-3.30;92.12
68994;BME280;56054;50.968;5.816;2022-12-18T10:38:47;101664.66;;;-3.26;92.50
68994;BME280;56054;50.968;5.816;2022-12-18T10:42:17;101664.94;;;-3.17;93.06
68994;BME280;56054;50.968;5.816;2022-12-18T10:45:24;101664.13;;;-3.11;93.74
68994;BME280;56054;50.968;5.816;2022-12-18T10:48:31;101661.97;;;-3.08;93.46
68994;BME280;56054;50.968;5.816;2022-12-18T10:51:40;101652.41;;;-3.03;93.94
68994;BME280;56054;50.968;5.816;2022-12-18T10:55:01;101635.94;;;-2.99;93.51
68994;BME280;56054;50.968;5.816;2022-12-18T10:58:29;101625.44;;;-2.95;93.62
68994;BME280;56054;50.968;5.816;2022-12-18T11:01:58;101621.03;;;-2.84;93.48
68994;BME280;56054;50.968;5.816;2022-12-18T11:05:32;101622.97;;;-2.75;93.25
68994;BME280;56054;50.968;5.816;2022-12-18T11:09:03;101610.41;;;-2.74;93.77
68994;BME280;56054;50.968;5.816;2022-12-18T11:12:22;101609.81;;;-2.66;93.91
68994;BME280;56054;50.968;5.816;2022-12-18T11:15:30;101608.03;;;-2.60;93.40
68994;BME280;56054;50.968;5.816;2022-12-18T11:18:37;101610.25;;;-2.55;93.86
68994;BME280;56054;50.968;5.816;2022-12-18T11:21:44;101615.53;;;-2.54;93.60
68994;BME280;56054;50.968;5.816;2022-12-18T11:25:20;101613.78;;;-2.48;93.16
68994;BME280;56054;50.968;5.816;2022-12-18T11:28:43;101608.56;;;-2.42;93.66
68994;BME280;56054;50.968;5.816;2022-12-18T11:32:38;101604.25;;;-2.36;93.71
68994;BME280;56054;50.968;5.816;2022-12-18T11:36:01;101589.16;;;-2.34;94.05
68994;BME280;56054;50.968;5.816;2022-12-18T11:39:39;101588.13;;;-2.29;93.79
68994;BME280;56054;50.968;5.816;2022-12-18T11:42:56;101587.41;;;-2.28;93.07
68994;BME280;56054;50.968;5.816;2022-12-18T11:46:51;101585.84;;;-2.21;93.32
68994;BME280;56054;50.968;5.816;2022-12-18T11:49:49;101581.19;;;-2.10;93.58
68994;BME280;56054;50.968;5.816;2022-12-18T11:52:56;101572.25;;;-2.14;94.12
68994;BME280;56054;50.968;5.816;2022-12-18T11:56:32;101567.38;;;-2.05;94.44
68994;BME280;56054;50.968;5.816;2022-12-18T12:03:14;101562.34;;;-1.98;93.79
68994;BME280;56054;50.968;5.816;2022-12-18T12:13:47;101531.19;;;-1.83;93.60
68994;BME280;56054;50.968;5.816;2022-12-18T12:33:26;101525.84;;;-1.57;93.01
68994;BME280;56054;50.968;5.816;2022-12-18T12:39:54;101498.38;;;-1.53;93.69
68994;BME280;56054;50.968;5.816;2022-12-18T12:43:10;101497.66;;;-1.44;93.41
68994;BME280;56054;50.968;5.816;2022-12-18T12:46:21;101489.47;;;-1.42;93.67
68994;BME280;56054;50.968;5.816;2022-12-18T12:49:31;101480.38;;;-1.40;92.84
68994;BME280;56054;50.968;5.816;2022-12-18T12:52:50;101477.84;;;-1.33;93.12
68994;BME280;56054;50.968;5.816;2022-12-18T12:55:58;101484.25;;;-1.29;93.28
68994;BME280;56054;50.968;5.816;2022-12-18T13:02:56;101477.53;;;-1.21;93.27
68994;BME280;56054;50.968;5.816;2022-12-18T13:13:22;101479.38;;;-1.06;93.20
68994;BME280;56054;50.968;5.816;2022-12-18T13:16:29;101465.72;;;-1.06;93.60
68994;BME280;56054;50.968;5.816;2022-12-18T13:19:36;101456.63;;;-1.04;93.27
68994;BME280;56054;50.968;5.816;2022-12-18T13:22:46;101449.88;;;-1.04;93.02
68994;BME280;56054;50.968;5.816;2022-12-18T13:25:55;101450.97;;;-1.02;93.31
68994;BME280;56054;50.968;5.816;2022-12-18T13:29:04;101443.66;;;-0.99;93.24
68994;BME280;56054;50.968;5.816;2022-12-18T13:32:37;101444.03;;;-0.96;93.26
68994;BME280;56054;50.968;5.816;2022-12-18T13:35:51;101431.63;;;-0.93;92.79
68994;BME280;56054;50.968;5.816;2022-12-18T13:42:37;101430.56;;;-0.88;92.85
68994;BME280;56054;50.968;5.816;2022-12-18T13:45:50;101441.47;;;-0.89;92.80
68994;BME280;56054;50.968;5.816;2022-12-18T13:52:23;101434.03;;;-0.80;92.69
68994;BME280;56054;50.968;5.816;2022-12-18T13:55:31;101435.69;;;-0.80;93.27
68994;BME280;56054;50.968;5.816;2022-12-18T13:58:40;101435.84;;;-0.79;93.33
68994;BME280;56054;50.968;5.816;2022-12-18T14:01:58;101435.47;;;-0.75;93.48
68994;BME280;56054;50.968;5.816;2022-12-18T14:05:36;101419.44;;;-0.74;93.55
68994;BME280;56054;50.968;5.816;2022-12-18T14:08:46;101424.72;;;-0.72;93.74
68994;BME280;56054;50.968;5.816;2022-12-18T14:11:54;101424.38;;;-0.68;94.05
68994;BME280;56054;50.968;5.816;2022-12-18T14:15:02;101419.06;;;-0.70;93.24
68994;BME280;56054;50.968;5.816;2022-12-18T14:18:24;101438.59;;;-0.63;93.05
68994;BME280;56054;50.968;5.816;2022-12-18T14:21:33;101444.41;;;-0.64;92.54
68994;BME280;56054;50.968;5.816;2022-12-18T14:24:40;101441.13;;;-0.63;92.92
68994;BME280;56054;50.968;5.816;2022-12-18T14:27:51;101428.38;;;-0.63;92.85
68994;BME280;56054;50.968;5.816;2022-12-18T14:30:58;101436.75;;;-0.64;93.31
68994;BME280;56054;50.968;5.816;2022-12-18T14:34:15;101436.72;;;-0.50;92.11
68994;BME280;56054;50.968;5.816;2022-12-18T14:37:25;101449.50;;;-0.57;91.80
68994;BME280;56054;50.968;5.816;2022-12-18T14:40:36;101442.59;;;-0.58;92.22
68994;BME280;56054;50.968;5.816;2022-12-18T14:43:45;101435.63;;;-0.59;91.91
68994;BME280;56054;50.968;5.816;2022-12-18T14:46:55;101429.47;;;-0.61;92.61
68994;BME280;56054;50.968;5.816;2022-12-18T14:50:03;101439.28;;;-0.57;92.32
68994;BME280;56054;50.968;5.816;2022-12-18T14:53:22;101438.59;;;-0.63;92.15
68994;BME280;56054;50.968;5.816;2022-12-18T14:56:36;101444.94;;;-0.59;92.08
68994;BME280;56054;50.968;5.816;2022-12-18T14:59:43;101444.03;;;-0.60;91.87
68994;BME280;56054;50.968;5.816;2022-12-18T15:02:53;101430.72;;;-0.65;92.19
68994;BME280;56054;50.968;5.816;2022-12-18T15:13:22;101438.94;;;-0.60;92.30
68994;BME280;56054;50.968;5.816;2022-12-18T15:16:30;101427.44;;;-0.63;92.48
68994;BME280;56054;50.968;5.816;2022-12-18T16:47:30;101398.19;;;-0.30;94.08
68994;BME280;56054;50.968;5.816;2022-12-18T16:58:43;101381.00;;;-0.75;94.33
68994;BME280;56054;50.968;5.816;2022-12-18T17:01:51;101389.72;;;-0.73;94.56
68994;BME280;56054;50.968;5.816;2022-12-18T17:05:06;101388.66;;;-0.75;94.49
68994;BME280;56054;50.968;5.816;2022-12-18T17:08:13;101380.25;;;-0.74;94.97
68994;BME280;56054;50.968;5.816;2022-12-18T17:11:20;101376.59;;;-0.76;94.61
68994;BME280;56054;50.968;5.816;2022-12-18T17:14:27;101388.09;;;-0.73;94.48
68994;BME280;56054;50.968;5.816;2022-12-18T17:17:35;101373.34;;;-0.82;94.60
68994;BME280;56054;50.968;5.816;2022-12-18T17:20:42;101373.69;;;-0.79;94.65
68994;BME280;56054;50.968;5.816;2022-12-18T17:23:50;101372.94;;;-0.78;94.85
68994;BME280;56054;50.968;5.816;2022-12-18T17:26:57;101367.69;;;-0.80;95.27
68994;BME280;56054;50.968;5.816;2022-12-18T17:30:10;101354.94;;;-0.80;94.95
68994;BME280;56054;50.968;5.816;2022-12-18T17:33:22;101358.03;;;-0.82;95.16
68994;BME280;56054;50.968;5.816;2022-12-18T17:36:31;101360.94;;;-0.87;94.83
68994;BME280;56054;50.968;5.816;2022-12-18T17:39:47;101366.59;;;-0.89;94.69
68994;BME280;56054;50.968;5.816;2022-12-18T17:43:08;101366.78;;;-0.80;94.34
68994;BME280;56054;50.968;5.816;2022-12-18T17:46:15;101365.13;;;-0.80;94.54
68994;BME280;56054;50.968;5.816;2022-12-18T17:49:22;101359.47;;;-0.77;94.04
68994;BME280;56054;50.968;5.816;2022-12-18T17:52:29;101356.03;;;-0.78;94.18
68994;BME280;56054;50.968;5.816;2022-12-18T17:55:37;101345.63;;;-0.72;94.30
68994;BME280;56054;50.968;5.816;2022-12-18T17:58:44;101358.03;;;-0.75;94.34
68994;BME280;56054;50.968;5.816;2022-12-18T18:01:50;101358.72;;;-0.76;94.53
68994;BME280;56054;50.968;5.816;2022-12-18T18:04:57;101351.63;;;-0.79;95.02
68994;BME280;56054;50.968;5.816;2022-12-18T18:08:06;101352.91;;;-0.68;95.21
68994;BME280;56054;50.968;5.816;2022-12-18T18:11:21;101348.53;;;-0.76;95.88
68994;BME280;56054;50.968;5.816;2022-12-18T18:14:30;101353.63;;;-0.76;95.74
68994;BME280;56054;50.968;5.816;2022-12-18T18:17:40;101358.56;;;-0.78;95.95
68994;BME280;56054;50.968;5.816;2022-12-18T18:20:51;101346.50;;;-0.72;95.80
68994;BME280;56054;50.968;5.816;2022-12-18T18:24:00;101341.06;;;-0.75;95.80
68994;BME280;56054;50.968;5.816;2022-12-18T18:27:08;101341.22;;;-0.73;95.22
68994;BME280;56054;50.968;5.816;2022-12-18T18:30:16;101340.16;;;-0.68;94.77
68994;BME280;56054;50.968;5.816;2022-12-18T18:33:23;101335.19;;;-0.67;94.48
68994;BME280;56054;50.968;5.816;2022-12-18T18:36:30;101338.66;;;-0.66;94.94
68994;BME280;56054;50.968;5.816;2022-12-18T18:39:41;101339.59;;;-0.66;94.84
68994;BME280;56054;50.968;5.816;2022-12-18T18:42:48;101342.50;;;-0.62;94.56
68994;BME280;56054;50.968;5.816;2022-12-18T18:45:56;101344.84;;;-0.57;93.58
68994;BME280;56054;50.968;5.816;2022-12-18T18:49:29;101344.13;;;-0.56;93.85
68994;BME280;56054;50.968;5.816;2022-12-18T18:52:36;101337.19;;;-0.57;93.70
68994;BME280;56054;50.968;5.816;2022-12-18T18:55:43;101324.63;;;-0.55;93.93
68994;BME280;56054;50.968;5.816;2022-12-18T18:58:58;101330.97;;;-0.52;94.05
68994;BME280;56054;50.968;5.816;2022-12-18T19:02:08;101330.63;;;-0.55;94.54
68994;BME280;56054;50.968;5.816;2022-12-18T19:05:22;101343.19;;;-0.49;94.33
68994;BME280;56054;50.968;5.816;2022-12-18T19:08:45;101345.72;;;-0.49;95.48
68994;BME280;56054;50.968;5.816;2022-12-18T19:11:55;101341.19;;;-0.52;94.96
68994;BME280;56054;50.968;5.816;2022-12-18T19:15:03;101343.56;;;-0.46;94.50
68994;BME280;56054;50.968;5.816;2022-12-18T19:18:11;101340.44;;;-0.44;94.16
68994;BME280;56054;50.968;5.816;2022-12-18T19:21:29;101346.13;;;-0.46;94.89
68994;BME280;56054;50.968;5.816;2022-12-18T19:24:37;101343.16;;;-0.42;94.38
68994;BME280;56054;50.968;5.816;2022-12-18T19:27:46;101340.78;;;-0.40;94.60
68994;BME280;56054;50.968;5.816;2022-12-18T19:30:57;101352.47;;;-0.43;95.23
68994;BME280;56054;50.968;5.816;2022-12-18T19:34:16;101335.16;;;-0.45;95.97
68994;BME280;56054;50.968;5.816;2022-12-18T19:37:23;101357.75;;;-0.41;95.76
68994;BME280;56054;50.968;5.816;2022-12-18T19:40:50;101363.03;;;-0.39;95.73
68994;BME280;56054;50.968;5.816;2022-12-18T19:44:11;101370.69;;;-0.39;95.93